createdAt,value
2017-11-26T00:09:25.000Z,1008.76
2017-11-26T00:19:25.000Z,1008.807
2017-11-26T00:29:26.000Z,1008.817
2017-11-26T00:39:26.000Z,1008.818
2017-11-26T00:49:26.000Z,1008.86
2017-11-26T00:59:26.000Z,1008.908
2017-11-26T01:09:26.000Z,1008.811
2017-11-26T01:19:26.000Z,1008.886
2017-11-26T01:29:26.000Z,1009.041
2017-11-26T01:39:26.000Z,1009.077
2017-11-26T01:49:26.000Z,1009.148
2017-11-26T01:59:26.000Z,1009.111
2017-11-26T02:09:26.000Z,1009.152
2017-11-26T02:19:26.000Z,1009.175
2017-11-26T02:29:26.000Z,1009.062
2017-11-26T02:39:26.000Z,1009.191
2017-11-26T02:49:26.000Z,1009.078
2017-11-26T02:59:26.000Z,1009.19
2017-11-26T03:09:26.000Z,1009.194
2017-11-26T03:19:26.000Z,1009.208
2017-11-26T03:29:26.000Z,1009.319
2017-11-26T03:39:26.000Z,1009.358
2017-11-26T03:49:26.000Z,1009.286
2017-11-26T03:59:26.000Z,1009.24
2017-11-26T04:19:26.000Z,1009.215
2017-11-26T04:39:26.000Z,1009.157
2017-11-26T04:49:26.000Z,1009.067
2017-11-26T04:59:26.000Z,1009.056
2017-11-26T05:09:26.000Z,1009.108
2017-11-26T05:19:26.000Z,1008.948
2017-11-26T05:29:26.000Z,1008.998
2017-11-26T05:39:26.000Z,1009.05
2017-11-26T05:49:26.000Z,1009.037
2017-11-26T05:59:26.000Z,1009.141
2017-11-26T06:09:26.000Z,1009.136
2017-11-26T06:19:26.000Z,1009.287
2017-11-26T06:29:26.000Z,1009.411
2017-11-26T06:39:26.000Z,1009.364
2017-11-26T06:49:26.000Z,1009.44
2017-11-26T06:59:26.000Z,1009.53
2017-11-26T07:09:26.000Z,1009.622
2017-11-26T07:19:26.000Z,1009.777
2017-11-26T07:29:26.000Z,1009.888
2017-11-26T07:39:26.000Z,1009.923
2017-11-26T07:49:26.000Z,1009.994
2017-11-26T07:59:26.000Z,1010.019
2017-11-26T08:09:26.000Z,1010.11
2017-11-26T08:19:26.000Z,1010.247
2017-11-26T08:29:26.000Z,1010.211
2017-11-26T08:39:26.000Z,1010.13
2017-11-26T08:49:27.000Z,1010.237
2017-11-26T08:59:27.000Z,1010.336
2017-11-26T09:09:27.000Z,1010.521
2017-11-26T09:19:27.000Z,1010.541
2017-11-26T09:29:27.000Z,1010.597
2017-11-26T09:39:27.000Z,1010.686
2017-11-26T09:49:27.000Z,1010.655
2017-11-26T09:59:27.000Z,1010.671
2017-11-26T10:09:27.000Z,1010.632
2017-11-26T10:19:27.000Z,1010.754
2017-11-26T10:29:27.000Z,1010.764
2017-11-26T10:39:27.000Z,1010.751
2017-11-26T10:49:27.000Z,1010.801
2017-11-26T10:59:27.000Z,1010.846
2017-11-26T11:09:27.000Z,1010.796
2017-11-26T11:19:27.000Z,1010.84
2017-11-26T11:29:27.000Z,1010.829
2017-11-26T11:39:27.000Z,1010.924
2017-11-26T11:49:27.000Z,1010.918
2017-11-26T11:59:27.000Z,1010.943
2017-11-26T12:09:27.000Z,1010.912
2017-11-26T12:19:27.000Z,1011.068
2017-11-26T12:29:27.000Z,1011.196
2017-11-26T12:39:27.000Z,1011.228
2017-11-26T12:49:27.000Z,1011.217
2017-11-26T12:59:27.000Z,1011.273
2017-11-26T13:09:27.000Z,1011.338
2017-11-26T13:19:27.000Z,1011.355
2017-11-26T13:29:27.000Z,1011.488
2017-11-26T13:39:27.000Z,1011.61
2017-11-26T13:49:27.000Z,1011.733
2017-11-26T13:59:27.000Z,1011.771
2017-11-26T14:09:27.000Z,1011.759
2017-11-26T14:19:27.000Z,1011.834
2017-11-26T14:29:27.000Z,1011.953
2017-11-26T14:39:27.000Z,1012.02
2017-11-26T14:49:27.000Z,1012.17
2017-11-26T14:59:27.000Z,1012.2
2017-11-26T15:09:29.000Z,1012.276
2017-11-26T15:19:27.000Z,1012.349
2017-11-26T15:29:27.000Z,1012.456
2017-11-26T15:39:27.000Z,1012.49
2017-11-26T15:49:28.000Z,1012.589
2017-11-26T15:59:27.000Z,1012.668
2017-11-26T16:09:27.000Z,1012.666
2017-11-26T16:19:27.000Z,1012.652
2017-11-26T16:29:27.000Z,1012.702
2017-11-26T16:39:27.000Z,1012.773
2017-11-26T16:49:27.000Z,1012.747
2017-11-26T16:59:27.000Z,1012.789
2017-11-26T17:09:28.000Z,1012.794
2017-11-26T17:19:28.000Z,1012.961
2017-11-26T17:29:28.000Z,1013.036
2017-11-26T17:39:28.000Z,1013.033
2017-11-26T17:49:28.000Z,1013.123
2017-11-26T17:59:28.000Z,1013.225
2017-11-26T18:09:28.000Z,1013.205
2017-11-26T18:19:28.000Z,1013.28
2017-11-26T18:29:28.000Z,1013.461
2017-11-26T18:39:28.000Z,1013.466
2017-11-26T18:49:28.000Z,1013.467
2017-11-26T18:59:28.000Z,1013.441
2017-11-26T19:09:28.000Z,1013.597
2017-11-26T19:19:28.000Z,1013.522
2017-11-26T19:29:28.000Z,1013.571
2017-11-26T19:39:28.000Z,1013.66
2017-11-26T19:49:28.000Z,1013.64
2017-11-26T19:59:28.000Z,1013.665
2017-11-26T20:09:29.000Z,1013.689
2017-11-26T20:19:28.000Z,1013.64
2017-11-26T20:29:28.000Z,1013.62
2017-11-26T20:39:28.000Z,1013.619
2017-11-26T20:49:28.000Z,1013.648
2017-11-26T20:59:28.000Z,1013.69
2017-11-26T21:09:32.000Z,1013.737
2017-11-26T21:19:29.000Z,1013.775
2017-11-26T21:29:28.000Z,1013.733
2017-11-26T21:39:28.000Z,1013.693
2017-11-26T21:49:28.000Z,1013.679
2017-11-26T21:59:28.000Z,1013.696
2017-11-26T22:09:28.000Z,1013.674
2017-11-26T22:19:28.000Z,1013.651
2017-11-26T22:29:28.000Z,1013.674
2017-11-26T22:39:28.000Z,1013.624
2017-11-26T22:49:28.000Z,1013.745
2017-11-26T22:59:28.000Z,1013.785
2017-11-26T23:09:28.000Z,1013.74
2017-11-26T23:19:28.000Z,1013.803
2017-11-26T23:29:28.000Z,1013.562
2017-11-26T23:39:28.000Z,1013.496
2017-11-26T23:49:28.000Z,1013.489
2017-11-26T23:59:28.000Z,1013.424
